sensor_id;sensor_type;location;lat;lon;timestamp;P1;durP1;ratioP1;P2;durP2;ratioP2
71570;SDS011;59407;42.682;23.322;2022-07-29T00:01:55;14.32;;;10.40;;
71570;SDS011;59407;42.682;23.322;2022-07-29T00:04:20;13.20;;;8.43;;
71570;SDS011;59407;42.682;23.322;2022-07-29T00:06:45;11.30;;;8.33;;
71570;SDS011;59407;42.682;23.322;2022-07-29T00:09:11;11.67;;;8.30;;
71570;SDS011;59407;42.682;23.322;2022-07-29T00:11:36;10.57;;;7.88;;
71570;SDS011;59407;42.682;23.322;2022-07-29T00:14:02;11.90;;;8.83;;
71570;SDS011;59407;42.682;23.322;2022-07-29T00:16:28;11.37;;;8.17;;
71570;SDS011;59407;42.682;23.322;2022-07-29T00:18:53;10.65;;;7.93;;
71570;SDS011;59407;42.682;23.322;2022-07-29T00:21:18;12.47;;;8.23;;
71570;SDS011;59407;42.682;23.322;2022-07-29T00:23:44;12.17;;;8.30;;
71570;SDS011;59407;42.682;23.322;2022-07-29T00:26:09;13.37;;;8.63;;
71570;SDS011;59407;42.682;23.322;2022-07-29T00:28:35;13.00;;;8.98;;
71570;SDS011;59407;42.682;23.322;2022-07-29T00:31:00;10.70;;;7.97;;
71570;SDS011;59407;42.682;23.322;2022-07-29T00:33:25;12.07;;;8.77;;
71570;SDS011;59407;42.682;23.322;2022-07-29T00:35:51;12.80;;;8.83;;
71570;SDS011;59407;42.682;23.322;2022-07-29T00:38:17;11.73;;;8.82;;
71570;SDS011;59407;42.682;23.322;2022-07-29T00:40:43;12.63;;;8.77;;
71570;SDS011;59407;42.682;23.322;2022-07-29T00:43:10;14.47;;;8.77;;
71570;SDS011;59407;42.682;23.322;2022-07-29T00:45:36;11.68;;;8.23;;
71570;SDS011;59407;42.682;23.322;2022-07-29T00:48:02;14.00;;;8.03;;
71570;SDS011;59407;42.682;23.322;2022-07-29T00:50:29;12.40;;;9.07;;
71570;SDS011;59407;42.682;23.322;2022-07-29T00:52:55;11.32;;;8.43;;
71570;SDS011;59407;42.682;23.322;2022-07-29T00:55:21;14.43;;;10.03;;
71570;SDS011;59407;42.682;23.322;2022-07-29T00:57:46;14.80;;;10.77;;
71570;SDS011;59407;42.682;23.322;2022-07-29T01:00:14;15.18;;;11.07;;
71570;SDS011;59407;42.682;23.322;2022-07-29T01:02:42;15.30;;;11.07;;
71570;SDS011;59407;42.682;23.322;2022-07-29T01:05:08;14.77;;;10.63;;
71570;SDS011;59407;42.682;23.322;2022-07-29T01:07:34;16.10;;;11.00;;
71570;SDS011;59407;42.682;23.322;2022-07-29T01:10:01;18.77;;;11.87;;
71570;SDS011;59407;42.682;23.322;2022-07-29T01:12:30;17.45;;;12.13;;
71570;SDS011;59407;42.682;23.322;2022-07-29T01:14:59;16.70;;;11.00;;
71570;SDS011;59407;42.682;23.322;2022-07-29T01:17:26;20.63;;;11.63;;
71570;SDS011;59407;42.682;23.322;2022-07-29T01:30:30;16.10;;;11.13;;
71570;SDS011;59407;42.682;23.322;2022-07-29T01:32:59;15.70;;;11.32;;
71570;SDS011;59407;42.682;23.322;2022-07-29T01:35:30;16.42;;;11.13;;
71570;SDS011;59407;42.682;23.322;2022-07-29T01:40:41;17.52;;;11.07;;
71570;SDS011;59407;42.682;23.322;2022-07-29T01:43:10;17.55;;;11.02;;
71570;SDS011;59407;42.682;23.322;2022-07-29T01:45:38;17.80;;;12.77;;
71570;SDS011;59407;42.682;23.322;2022-07-29T01:48:10;17.10;;;11.13;;
71570;SDS011;59407;42.682;23.322;2022-07-29T01:50:48;16.50;;;11.17;;
71570;SDS011;59407;42.682;23.322;2022-07-29T01:53:37;19.58;;;12.57;;
71570;SDS011;59407;42.682;23.322;2022-07-29T01:56:02;20.30;;;11.88;;
71570;SDS011;59407;42.682;23.322;2022-07-29T01:58:29;16.33;;;10.80;;
71570;SDS011;59407;42.682;23.322;2022-07-29T02:00:57;20.00;;;13.10;;
71570;SDS011;59407;42.682;23.322;2022-07-29T02:03:23;16.93;;;12.30;;
71570;SDS011;59407;42.682;23.322;2022-07-29T02:05:49;16.33;;;12.05;;
71570;SDS011;59407;42.682;23.322;2022-07-29T02:08:16;17.98;;;12.38;;
71570;SDS011;59407;42.682;23.322;2022-07-29T02:10:43;18.40;;;12.38;;
71570;SDS011;59407;42.682;23.322;2022-07-29T02:13:09;17.52;;;12.50;;
71570;SDS011;59407;42.682;23.322;2022-07-29T02:15:36;18.07;;;12.87;;
71570;SDS011;59407;42.682;23.322;2022-07-29T02:18:07;16.20;;;11.77;;
71570;SDS011;59407;42.682;23.322;2022-07-29T02:20:34;18.83;;;12.60;;
71570;SDS011;59407;42.682;23.322;2022-07-29T02:23:01;18.17;;;12.13;;
71570;SDS011;59407;42.682;23.322;2022-07-29T02:25:27;17.77;;;11.35;;
71570;SDS011;59407;42.682;23.322;2022-07-29T02:27:54;19.57;;;12.27;;
71570;SDS011;59407;42.682;23.322;2022-07-29T02:30:20;19.30;;;12.35;;
71570;SDS011;59407;42.682;23.322;2022-07-29T02:32:47;16.13;;;11.38;;
71570;SDS011;59407;42.682;23.322;2022-07-29T02:35:14;15.50;;;11.38;;
71570;SDS011;59407;42.682;23.322;2022-07-29T02:37:41;17.58;;;11.18;;
71570;SDS011;59407;42.682;23.322;2022-07-29T02:40:08;16.43;;;11.20;;
71570;SDS011;59407;42.682;23.322;2022-07-29T02:42:36;15.20;;;11.25;;
71570;SDS011;59407;42.682;23.322;2022-07-29T02:45:03;15.07;;;11.23;;
71570;SDS011;59407;42.682;23.322;2022-07-29T02:47:42;15.68;;;11.32;;
71570;SDS011;59407;42.682;23.322;2022-07-29T02:50:11;16.60;;;11.95;;
71570;SDS011;59407;42.682;23.322;2022-07-29T02:52:42;17.87;;;11.63;;
71570;SDS011;59407;42.682;23.322;2022-07-29T02:57:36;17.37;;;12.17;;
71570;SDS011;59407;42.682;23.322;2022-07-29T03:00:05;16.33;;;11.60;;
71570;SDS011;59407;42.682;23.322;2022-07-29T03:02:33;16.88;;;11.57;;
71570;SDS011;59407;42.682;23.322;2022-07-29T03:05:01;17.27;;;12.13;;
71570;SDS011;59407;42.682;23.322;2022-07-29T03:07:27;17.73;;;11.97;;
71570;SDS011;59407;42.682;23.322;2022-07-29T03:09:53;18.17;;;12.07;;
71570;SDS011;59407;42.682;23.322;2022-07-29T03:12:18;16.97;;;11.27;;
71570;SDS011;59407;42.682;23.322;2022-07-29T03:14:44;18.63;;;12.40;;
71570;SDS011;59407;42.682;23.322;2022-07-29T03:17:10;20.60;;;13.33;;
71570;SDS011;59407;42.682;23.322;2022-07-29T03:19:35;17.70;;;12.38;;
71570;SDS011;59407;42.682;23.322;2022-07-29T03:22:01;18.97;;;11.63;;
71570;SDS011;59407;42.682;23.322;2022-07-29T03:26:54;18.60;;;11.93;;
71570;SDS011;59407;42.682;23.322;2022-07-29T03:29:20;17.23;;;10.98;;
71570;SDS011;59407;42.682;23.322;2022-07-29T03:31:45;15.23;;;11.27;;
71570;SDS011;59407;42.682;23.322;2022-07-29T03:34:10;16.53;;;11.20;;
71570;SDS011;59407;42.682;23.322;2022-07-29T03:36:36;18.70;;;12.13;;
71570;SDS011;59407;42.682;23.322;2022-07-29T03:39:01;14.73;;;9.53;;
71570;SDS011;59407;42.682;23.322;2022-07-29T03:41:27;17.20;;;10.83;;
71570;SDS011;59407;42.682;23.322;2022-07-29T03:43:53;14.43;;;10.33;;
71570;SDS011;59407;42.682;23.322;2022-07-29T03:46:19;14.65;;;10.05;;
71570;SDS011;59407;42.682;23.322;2022-07-29T03:48:46;15.17;;;9.90;;
71570;SDS011;59407;42.682;23.322;2022-07-29T03:51:14;14.88;;;10.93;;
71570;SDS011;59407;42.682;23.322;2022-07-29T03:53:39;15.85;;;10.70;;
71570;SDS011;59407;42.682;23.322;2022-07-29T03:56:05;13.17;;;10.00;;
71570;SDS011;59407;42.682;23.322;2022-07-29T03:58:31;14.02;;;9.85;;
71570;SDS011;59407;42.682;23.322;2022-07-29T04:00:57;16.33;;;9.60;;
71570;SDS011;59407;42.682;23.322;2022-07-29T04:03:23;14.23;;;8.70;;
71570;SDS011;59407;42.682;23.322;2022-07-29T04:06:02;13.27;;;8.83;;
71570;SDS011;59407;42.682;23.322;2022-07-29T04:08:30;13.05;;;8.52;;
71570;SDS011;59407;42.682;23.322;2022-07-29T04:10:55;11.47;;;8.10;;
71570;SDS011;59407;42.682;23.322;2022-07-29T04:13:21;13.18;;;8.10;;
71570;SDS011;59407;42.682;23.322;2022-07-29T04:15:46;12.90;;;8.67;;
71570;SDS011;59407;42.682;23.322;2022-07-29T04:18:12;13.27;;;9.03;;
71570;SDS011;59407;42.682;23.322;2022-07-29T04:20:37;12.83;;;9.33;;
71570;SDS011;59407;42.682;23.322;2022-07-29T04:23:03;12.13;;;8.27;;
71570;SDS011;59407;42.682;23.322;2022-07-29T04:25:28;12.30;;;8.50;;
71570;SDS011;59407;42.682;23.322;2022-07-29T04:27:53;12.00;;;8.17;;
71570;SDS011;59407;42.682;23.322;2022-07-29T04:30:25;13.15;;;9.18;;
71570;SDS011;59407;42.682;23.322;2022-07-29T04:32:50;13.17;;;8.83;;
71570;SDS011;59407;42.682;23.322;2022-07-29T04:35:16;12.40;;;8.70;;
71570;SDS011;59407;42.682;23.322;2022-07-29T04:37:42;11.97;;;8.40;;
71570;SDS011;59407;42.682;23.322;2022-07-29T04:40:36;11.93;;;8.23;;
71570;SDS011;59407;42.682;23.322;2022-07-29T04:43:02;13.00;;;8.97;;
71570;SDS011;59407;42.682;23.322;2022-07-29T04:45:27;12.70;;;8.50;;
71570;SDS011;59407;42.682;23.322;2022-07-29T04:47:53;12.73;;;8.38;;
71570;SDS011;59407;42.682;23.322;2022-07-29T04:50:19;13.88;;;8.48;;
71570;SDS011;59407;42.682;23.322;2022-07-29T04:52:44;15.50;;;9.07;;
71570;SDS011;59407;42.682;23.322;2022-07-29T04:55:10;13.33;;;8.63;;
71570;SDS011;59407;42.682;23.322;2022-07-29T04:57:35;15.50;;;8.50;;
71570;SDS011;59407;42.682;23.322;2022-07-29T05:00:04;15.40;;;9.45;;
71570;SDS011;59407;42.682;23.322;2022-07-29T05:02:50;13.95;;;8.90;;
71570;SDS011;59407;42.682;23.322;2022-07-29T05:05:16;11.30;;;8.53;;
71570;SDS011;59407;42.682;23.322;2022-07-29T05:07:53;14.32;;;9.00;;
71570;SDS011;59407;42.682;23.322;2022-07-29T05:10:22;13.50;;;8.52;;
71570;SDS011;59407;42.682;23.322;2022-07-29T05:12:47;12.00;;;7.93;;
71570;SDS011;59407;42.682;23.322;2022-07-29T05:15:13;11.30;;;7.55;;
71570;SDS011;59407;42.682;23.322;2022-07-29T05:17:39;12.17;;;7.43;;
71570;SDS011;59407;42.682;23.322;2022-07-29T05:20:05;11.17;;;7.37;;
71570;SDS011;59407;42.682;23.322;2022-07-29T05:22:31;13.32;;;7.80;;
71570;SDS011;59407;42.682;23.322;2022-07-29T05:24:56;10.80;;;7.40;;
71570;SDS011;59407;42.682;23.322;2022-07-29T05:27:30;10.97;;;7.27;;
71570;SDS011;59407;42.682;23.322;2022-07-29T05:29:59;10.32;;;6.80;;
71570;SDS011;59407;42.682;23.322;2022-07-29T05:32:24;12.93;;;6.90;;
71570;SDS011;59407;42.682;23.322;2022-07-29T05:34:50;13.47;;;7.47;;
71570;SDS011;59407;42.682;23.322;2022-07-29T05:37:36;12.07;;;7.70;;
71570;SDS011;59407;42.682;23.322;2022-07-29T05:40:01;11.05;;;7.10;;
71570;SDS011;59407;42.682;23.322;2022-07-29T05:42:30;13.52;;;7.53;;
71570;SDS011;59407;42.682;23.322;2022-07-29T05:44:55;12.07;;;7.30;;
71570;SDS011;59407;42.682;23.322;2022-07-29T05:47:21;19.83;;;9.38;;
71570;SDS011;59407;42.682;23.322;2022-07-29T05:49:52;14.77;;;9.83;;
71570;SDS011;59407;42.682;23.322;2022-07-29T05:52:19;12.77;;;7.28;;
71570;SDS011;59407;42.682;23.322;2022-07-29T05:54:44;12.38;;;7.95;;
71570;SDS011;59407;42.682;23.322;2022-07-29T05:57:16;9.40;;;6.93;;
71570;SDS011;59407;42.682;23.322;2022-07-29T05:59:43;9.48;;;6.90;;
71570;SDS011;59407;42.682;23.322;2022-07-29T06:02:08;12.33;;;6.70;;
71570;SDS011;59407;42.682;23.322;2022-07-29T06:04:33;10.83;;;6.97;;
71570;SDS011;59407;42.682;23.322;2022-07-29T06:06:59;12.40;;;7.13;;
71570;SDS011;59407;42.682;23.322;2022-07-29T06:09:24;8.57;;;6.03;;
71570;SDS011;59407;42.682;23.322;2022-07-29T06:11:50;9.02;;;6.22;;
71570;SDS011;59407;42.682;23.322;2022-07-29T06:14:17;11.48;;;7.50;;
71570;SDS011;59407;42.682;23.322;2022-07-29T06:16:42;9.43;;;6.10;;
71570;SDS011;59407;42.682;23.322;2022-07-29T06:19:08;9.55;;;6.30;;
71570;SDS011;59407;42.682;23.322;2022-07-29T06:21:34;8.40;;;5.77;;
71570;SDS011;59407;42.682;23.322;2022-07-29T06:23:59;8.20;;;6.07;;
71570;SDS011;59407;42.682;23.322;2022-07-29T06:26:24;10.80;;;6.20;;
71570;SDS011;59407;42.682;23.322;2022-07-29T06:28:50;13.40;;;8.73;;
71570;SDS011;59407;42.682;23.322;2022-07-29T06:31:15;10.88;;;6.65;;
71570;SDS011;59407;42.682;23.322;2022-07-29T06:33:41;8.20;;;6.30;;
71570;SDS011;59407;42.682;23.322;2022-07-29T06:36:06;8.23;;;5.50;;
71570;SDS011;59407;42.682;23.322;2022-07-29T06:38:33;9.48;;;6.70;;
71570;SDS011;59407;42.682;23.322;2022-07-29T06:41:03;9.73;;;6.45;;
71570;SDS011;59407;42.682;23.322;2022-07-29T06:43:32;8.30;;;5.90;;
71570;SDS011;59407;42.682;23.322;2022-07-29T06:46:24;9.82;;;5.35;;
71570;SDS011;59407;42.682;23.322;2022-07-29T06:49:10;8.75;;;5.55;;
71570;SDS011;59407;42.682;23.322;2022-07-29T06:51:49;8.48;;;5.60;;
71570;SDS011;59407;42.682;23.322;2022-07-29T06:54:14;9.80;;;5.30;;
71570;SDS011;59407;42.682;23.322;2022-07-29T06:56:39;8.43;;;5.53;;
71570;SDS011;59407;42.682;23.322;2022-07-29T06:59:10;8.65;;;5.50;;
71570;SDS011;59407;42.682;23.322;2022-07-29T07:01:37;9.32;;;6.15;;
71570;SDS011;59407;42.682;23.322;2022-07-29T07:04:03;9.95;;;5.38;;
71570;SDS011;59407;42.682;23.322;2022-07-29T07:06:28;9.93;;;5.70;;
71570;SDS011;59407;42.682;23.322;2022-07-29T07:08:54;8.60;;;5.73;;
71570;SDS011;59407;42.682;23.322;2022-07-29T07:11:19;7.20;;;5.73;;
71570;SDS011;59407;42.682;23.322;2022-07-29T07:13:44;7.65;;;5.50;;
71570;SDS011;59407;42.682;23.322;2022-07-29T07:16:10;9.43;;;5.27;;
71570;SDS011;59407;42.682;23.322;2022-07-29T07:18:35;8.27;;;5.47;;
71570;SDS011;59407;42.682;23.322;2022-07-29T07:21:01;7.23;;;5.00;;
71570;SDS011;59407;42.682;23.322;2022-07-29T07:23:26;14.63;;;8.43;;
71570;SDS011;59407;42.682;23.322;2022-07-29T07:25:52;7.17;;;5.27;;
71570;SDS011;59407;42.682;23.322;2022-07-29T07:28:18;8.40;;;4.93;;
71570;SDS011;59407;42.682;23.322;2022-07-29T07:30:44;7.43;;;4.93;;
71570;SDS011;59407;42.682;23.322;2022-07-29T07:33:13;6.18;;;4.28;;
71570;SDS011;59407;42.682;23.322;2022-07-29T07:35:39;6.03;;;4.35;;
71570;SDS011;59407;42.682;23.322;2022-07-29T07:38:05;6.90;;;4.88;;
71570;SDS011;59407;42.682;23.322;2022-07-29T07:40:31;7.97;;;5.33;;
71570;SDS011;59407;42.682;23.322;2022-07-29T07:49:00;8.18;;;4.22;;
71570;SDS011;59407;42.682;23.322;2022-07-29T07:55:00;7.55;;;6.68;;
71570;SDS011;59407;42.682;23.322;2022-07-29T08:03:08;7.53;;;4.40;;
71570;SDS011;59407;42.682;23.322;2022-07-29T08:11:46;6.80;;;4.18;;
71570;SDS011;59407;42.682;23.322;2022-07-29T08:17:30;5.47;;;4.00;;
71570;SDS011;59407;42.682;23.322;2022-07-29T08:20:27;9.10;;;4.47;;
71570;SDS011;59407;42.682;23.322;2022-07-29T08:26:46;5.28;;;3.55;;
71570;SDS011;59407;42.682;23.322;2022-07-29T08:29:27;6.18;;;3.95;;
71570;SDS011;59407;42.682;23.322;2022-07-29T08:31:58;8.17;;;4.13;;
71570;SDS011;59407;42.682;23.322;2022-07-29T08:34:57;5.80;;;3.80;;
71570;SDS011;59407;42.682;23.322;2022-07-29T08:37:28;4.55;;;3.53;;
71570;SDS011;59407;42.682;23.322;2022-07-29T08:39:54;5.77;;;3.30;;
71570;SDS011;59407;42.682;23.322;2022-07-29T08:42:19;6.70;;;3.40;;
71570;SDS011;59407;42.682;23.322;2022-07-29T08:44:45;7.03;;;3.53;;
71570;SDS011;59407;42.682;23.322;2022-07-29T08:47:10;5.00;;;3.40;;
71570;SDS011;59407;42.682;23.322;2022-07-29T08:49:39;5.78;;;3.60;;
71570;SDS011;59407;42.682;23.322;2022-07-29T08:52:04;5.23;;;3.80;;
71570;SDS011;59407;42.682;23.322;2022-07-29T08:54:30;5.10;;;3.40;;
71570;SDS011;59407;42.682;23.322;2022-07-29T08:56:56;5.85;;;3.17;;
71570;SDS011;59407;42.682;23.322;2022-07-29T08:59:22;5.73;;;3.50;;
71570;SDS011;59407;42.682;23.322;2022-07-29T09:01:50;6.50;;;3.37;;
71570;SDS011;59407;42.682;23.322;2022-07-29T09:04:18;4.97;;;3.17;;
71570;SDS011;59407;42.682;23.322;2022-07-29T09:06:49;4.60;;;3.13;;
71570;SDS011;59407;42.682;23.322;2022-07-29T09:09:18;5.15;;;3.15;;
71570;SDS011;59407;42.682;23.322;2022-07-29T09:11:44;8.30;;;3.73;;
71570;SDS011;59407;42.682;23.322;2022-07-29T09:14:10;7.77;;;3.60;;
71570;SDS011;59407;42.682;23.322;2022-07-29T09:16:47;4.65;;;3.60;;
71570;SDS011;59407;42.682;23.322;2022-07-29T09:19:28;4.68;;;3.17;;
71570;SDS011;59407;42.682;23.322;2022-07-29T09:21:55;4.80;;;3.30;;
71570;SDS011;59407;42.682;23.322;2022-07-29T09:24:46;5.38;;;3.05;;
71570;SDS011;59407;42.682;23.322;2022-07-29T09:29:44;4.72;;;3.40;;
71570;SDS011;59407;42.682;23.322;2022-07-29T09:32:10;5.83;;;3.50;;
71570;SDS011;59407;42.682;23.322;2022-07-29T09:34:36;6.67;;;4.77;;
71570;SDS011;59407;42.682;23.322;2022-07-29T09:37:02;8.07;;;3.75;;
71570;SDS011;59407;42.682;23.322;2022-07-29T09:39:38;4.83;;;3.30;;
71570;SDS011;59407;42.682;23.322;2022-07-29T09:42:11;4.55;;;3.20;;
71570;SDS011;59407;42.682;23.322;2022-07-29T09:44:45;7.13;;;3.95;;
71570;SDS011;59407;42.682;23.322;2022-07-29T09:47:13;5.20;;;3.40;;
71570;SDS011;59407;42.682;23.322;2022-07-29T09:49:55;5.40;;;3.30;;
71570;SDS011;59407;42.682;23.322;2022-07-29T09:52:26;7.13;;;3.90;;
71570;SDS011;59407;42.682;23.322;2022-07-29T09:54:52;7.35;;;3.83;;
71570;SDS011;59407;42.682;23.322;2022-07-29T09:57:23;6.72;;;3.05;;
71570;SDS011;59407;42.682;23.322;2022-07-29T09:59:57;5.50;;;3.30;;
71570;SDS011;59407;42.682;23.322;2022-07-29T10:02:31;6.38;;;3.40;;
71570;SDS011;59407;42.682;23.322;2022-07-29T10:04:57;6.47;;;3.80;;
71570;SDS011;59407;42.682;23.322;2022-07-29T10:07:24;5.07;;;3.65;;
71570;SDS011;59407;42.682;23.322;2022-07-29T10:09:57;7.78;;;3.80;;
71570;SDS011;59407;42.682;23.322;2022-07-29T10:12:23;6.68;;;3.50;;
71570;SDS011;59407;42.682;23.322;2022-07-29T10:14:49;5.70;;;4.07;;
71570;SDS011;59407;42.682;23.322;2022-07-29T10:17:16;5.57;;;3.90;;
71570;SDS011;59407;42.682;23.322;2022-07-29T10:19:42;7.70;;;4.05;;
71570;SDS011;59407;42.682;23.322;2022-07-29T10:22:08;6.83;;;3.50;;
71570;SDS011;59407;42.682;23.322;2022-07-29T10:24:34;5.93;;;3.90;;
71570;SDS011;59407;42.682;23.322;2022-07-29T10:27:01;4.25;;;3.42;;
71570;SDS011;59407;42.682;23.322;2022-07-29T10:29:27;4.53;;;3.40;;
71570;SDS011;59407;42.682;23.322;2022-07-29T10:40:18;5.32;;;3.38;;
71570;SDS011;59407;42.682;23.322;2022-07-29T10:43:17;4.85;;;3.45;;
71570;SDS011;59407;42.682;23.322;2022-07-29T10:45:47;4.10;;;3.00;;
71570;SDS011;59407;42.682;23.322;2022-07-29T10:48:13;4.87;;;2.53;;
71570;SDS011;59407;42.682;23.322;2022-07-29T10:50:55;5.75;;;3.30;;
71570;SDS011;59407;42.682;23.322;2022-07-29T10:53:46;8.05;;;3.53;;
71570;SDS011;59407;42.682;23.322;2022-07-29T10:56:26;4.53;;;3.25;;
71570;SDS011;59407;42.682;23.322;2022-07-29T10:59:22;7.00;;;3.65;;
71570;SDS011;59407;42.682;23.322;2022-07-29T11:01:44;4.43;;;3.20;;
71570;SDS011;59407;42.682;23.322;2022-07-29T11:04:14;6.25;;;3.28;;
71570;SDS011;59407;42.682;23.322;2022-07-29T11:09:29;5.53;;;3.30;;
71570;SDS011;59407;42.682;23.322;2022-07-29T11:11:56;4.13;;;3.17;;
71570;SDS011;59407;42.682;23.322;2022-07-29T11:14:58;4.50;;;3.33;;
71570;SDS011;59407;42.682;23.322;2022-07-29T11:17:19;7.15;;;3.30;;
71570;SDS011;59407;42.682;23.322;2022-07-29T11:19:45;3.83;;;2.97;;
71570;SDS011;59407;42.682;23.322;2022-07-29T11:22:10;4.90;;;3.47;;
71570;SDS011;59407;42.682;23.322;2022-07-29T11:24:37;5.33;;;3.37;;
71570;SDS011;59407;42.682;23.322;2022-07-29T11:27:13;5.00;;;3.35;;
71570;SDS011;59407;42.682;23.322;2022-07-29T11:32:15;5.18;;;3.58;;
71570;SDS011;59407;42.682;23.322;2022-07-29T11:34:42;6.38;;;3.72;;
71570;SDS011;59407;42.682;23.322;2022-07-29T11:47:27;5.28;;;3.83;;
71570;SDS011;59407;42.682;23.322;2022-07-29T11:49:55;6.00;;;3.95;;
71570;SDS011;59407;42.682;23.322;2022-07-29T11:52:22;4.90;;;3.70;;
71570;SDS011;59407;42.682;23.322;2022-07-29T11:54:48;5.60;;;3.90;;
71570;SDS011;59407;42.682;23.322;2022-07-29T11:57:15;5.47;;;3.67;;
71570;SDS011;59407;42.682;23.322;2022-07-29T11:59:42;6.65;;;3.90;;
71570;SDS011;59407;42.682;23.322;2022-07-29T12:02:09;5.47;;;4.00;;
71570;SDS011;59407;42.682;23.322;2022-07-29T12:04:48;5.80;;;3.75;;
71570;SDS011;59407;42.682;23.322;2022-07-29T12:07:17;6.65;;;5.50;;
71570;SDS011;59407;42.682;23.322;2022-07-29T12:09:49;5.20;;;4.17;;
71570;SDS011;59407;42.682;23.322;2022-07-29T12:12:19;8.13;;;3.60;;
71570;SDS011;59407;42.682;23.322;2022-07-29T12:14:44;5.38;;;3.45;;
71570;SDS011;59407;42.682;23.322;2022-07-29T12:17:29;5.60;;;4.03;;
71570;SDS011;59407;42.682;23.322;2022-07-29T12:20:02;6.53;;;3.70;;
71570;SDS011;59407;42.682;23.322;2022-07-29T12:22:34;6.32;;;3.25;;
71570;SDS011;59407;42.682;23.322;2022-07-29T12:25:17;6.00;;;4.20;;
71570;SDS011;59407;42.682;23.322;2022-07-29T12:27:58;7.82;;;4.22;;
71570;SDS011;59407;42.682;23.322;2022-07-29T12:30:50;6.63;;;3.88;;
71570;SDS011;59407;42.682;23.322;2022-07-29T12:35:46;5.68;;;4.57;;
71570;SDS011;59407;42.682;23.322;2022-07-29T12:38:14;7.75;;;4.35;;
71570;SDS011;59407;42.682;23.322;2022-07-29T12:40:40;6.57;;;4.35;;
71570;SDS011;59407;42.682;23.322;2022-07-29T12:43:13;6.67;;;4.00;;
71570;SDS011;59407;42.682;23.322;2022-07-29T12:45:47;6.13;;;4.55;;
71570;SDS011;59407;42.682;23.322;2022-07-29T12:48:31;7.30;;;4.35;;
71570;SDS011;59407;42.682;23.322;2022-07-29T12:51:07;6.63;;;4.50;;
71570;SDS011;59407;42.682;23.322;2022-07-29T12:53:35;7.27;;;4.60;;
71570;SDS011;59407;42.682;23.322;2022-07-29T12:56:01;6.57;;;4.90;;
71570;SDS011;59407;42.682;23.322;2022-07-29T12:58:32;6.38;;;4.60;;
71570;SDS011;59407;42.682;23.322;2022-07-29T13:06:44;6.43;;;4.50;;
71570;SDS011;59407;42.682;23.322;2022-07-29T13:11:43;7.43;;;4.38;;
71570;SDS011;59407;42.682;23.322;2022-07-29T13:14:13;7.18;;;4.80;;
71570;SDS011;59407;42.682;23.322;2022-07-29T13:17:09;5.68;;;4.80;;
71570;SDS011;59407;42.682;23.322;2022-07-29T13:19:41;5.57;;;4.30;;
71570;SDS011;59407;42.682;23.322;2022-07-29T13:22:08;6.53;;;4.70;;
71570;SDS011;59407;42.682;23.322;2022-07-29T13:24:44;5.47;;;4.20;;
71570;SDS011;59407;42.682;23.322;2022-07-29T13:27:11;5.90;;;4.45;;
71570;SDS011;59407;42.682;23.322;2022-07-29T13:29:36;5.57;;;3.90;;
71570;SDS011;59407;42.682;23.322;2022-07-29T13:32:05;6.72;;;4.40;;
71570;SDS011;59407;42.682;23.322;2022-07-29T13:34:30;9.50;;;4.43;;
71570;SDS011;59407;42.682;23.322;2022-07-29T13:37:14;5.63;;;4.20;;
71570;SDS011;59407;42.682;23.322;2022-07-29T13:39:48;5.70;;;3.93;;
71570;SDS011;59407;42.682;23.322;2022-07-29T13:42:51;5.80;;;4.22;;
71570;SDS011;59407;42.682;23.322;2022-07-29T13:48:38;6.57;;;4.80;;
71570;SDS011;59407;42.682;23.322;2022-07-29T13:51:04;4.70;;;3.92;;
71570;SDS011;59407;42.682;23.322;2022-07-29T13:53:29;6.50;;;4.20;;
71570;SDS011;59407;42.682;23.322;2022-07-29T13:55:55;5.40;;;3.87;;
71570;SDS011;59407;42.682;23.322;2022-07-29T13:58:20;7.33;;;4.30;;
71570;SDS011;59407;42.682;23.322;2022-07-29T14:00:45;5.00;;;4.00;;
71570;SDS011;59407;42.682;23.322;2022-07-29T14:06:15;5.65;;;3.75;;
71570;SDS011;59407;42.682;23.322;2022-07-29T14:08:40;7.57;;;4.50;;
71570;SDS011;59407;42.682;23.322;2022-07-29T14:11:06;5.47;;;4.10;;
71570;SDS011;59407;42.682;23.322;2022-07-29T14:14:17;5.80;;;4.20;;
71570;SDS011;59407;42.682;23.322;2022-07-29T14:17:24;7.35;;;4.10;;
71570;SDS011;59407;42.682;23.322;2022-07-29T14:19:57;6.53;;;4.20;;
71570;SDS011;59407;42.682;23.322;2022-07-29T14:22:22;5.10;;;3.60;;
71570;SDS011;59407;42.682;23.322;2022-07-29T14:27:36;5.45;;;3.72;;
71570;SDS011;59407;42.682;23.322;2022-07-29T14:30:18;5.83;;;4.00;;
71570;SDS011;59407;42.682;23.322;2022-07-29T14:32:49;6.93;;;4.10;;
71570;SDS011;59407;42.682;23.322;2022-07-29T14:35:23;5.88;;;3.60;;
71570;SDS011;59407;42.682;23.322;2022-07-29T14:37:48;7.45;;;3.97;;
71570;SDS011;59407;42.682;23.322;2022-07-29T14:40:17;4.80;;;4.10;;
71570;SDS011;59407;42.682;23.322;2022-07-29T14:42:42;9.77;;;4.85;;
71570;SDS011;59407;42.682;23.322;2022-07-29T14:45:08;6.33;;;3.87;;
71570;SDS011;59407;42.682;23.322;2022-07-29T14:47:34;5.47;;;4.05;;
71570;SDS011;59407;42.682;23.322;2022-07-29T14:50:00;6.38;;;4.30;;
71570;SDS011;59407;42.682;23.322;2022-07-29T14:52:26;6.90;;;4.00;;
71570;SDS011;59407;42.682;23.322;2022-07-29T14:54:51;5.90;;;4.20;;
71570;SDS011;59407;42.682;23.322;2022-07-29T14:57:17;6.57;;;4.73;;
71570;SDS011;59407;42.682;23.322;2022-07-29T14:59:42;5.80;;;3.97;;
71570;SDS011;59407;42.682;23.322;2022-07-29T15:02:07;5.53;;;4.20;;
71570;SDS011;59407;42.682;23.322;2022-07-29T15:04:34;6.95;;;4.00;;
71570;SDS011;59407;42.682;23.322;2022-07-29T15:06:59;5.53;;;4.03;;
71570;SDS011;59407;42.682;23.322;2022-07-29T15:09:25;6.63;;;3.95;;
71570;SDS011;59407;42.682;23.322;2022-07-29T15:11:50;5.17;;;4.07;;
71570;SDS011;59407;42.682;23.322;2022-07-29T15:14:15;5.93;;;4.13;;
71570;SDS011;59407;42.682;23.322;2022-07-29T15:16:41;8.03;;;4.10;;
71570;SDS011;59407;42.682;23.322;2022-07-29T15:19:07;6.40;;;4.28;;
71570;SDS011;59407;42.682;23.322;2022-07-29T15:21:33;4.70;;;3.83;;
71570;SDS011;59407;42.682;23.322;2022-07-29T15:23:59;6.77;;;4.40;;
71570;SDS011;59407;42.682;23.322;2022-07-29T15:26:24;6.45;;;4.22;;
71570;SDS011;59407;42.682;23.322;2022-07-29T15:28:50;6.30;;;4.27;;
71570;SDS011;59407;42.682;23.322;2022-07-29T15:31:16;5.95;;;4.80;;
71570;SDS011;59407;42.682;23.322;2022-07-29T15:33:42;6.07;;;4.30;;
71570;SDS011;59407;42.682;23.322;2022-07-29T15:36:07;6.55;;;4.40;;
71570;SDS011;59407;42.682;23.322;2022-07-29T15:38:33;7.53;;;5.13;;
71570;SDS011;59407;42.682;23.322;2022-07-29T15:40:58;5.80;;;4.30;;
71570;SDS011;59407;42.682;23.322;2022-07-29T15:43:24;10.27;;;5.40;;
71570;SDS011;59407;42.682;23.322;2022-07-29T15:45:49;5.40;;;4.50;;
71570;SDS011;59407;42.682;23.322;2022-07-29T16:04:58;7.63;;;5.18;;
71570;SDS011;59407;42.682;23.322;2022-07-29T16:11:11;5.68;;;4.10;;
71570;SDS011;59407;42.682;23.322;2022-07-29T16:13:36;7.03;;;4.67;;
71570;SDS011;59407;42.682;23.322;2022-07-29T16:16:02;7.68;;;5.03;;
71570;SDS011;59407;42.682;23.322;2022-07-29T16:18:27;7.13;;;4.50;;
71570;SDS011;59407;42.682;23.322;2022-07-29T16:20:53;9.33;;;4.87;;
71570;SDS011;59407;42.682;23.322;2022-07-29T16:23:20;7.35;;;5.00;;
71570;SDS011;59407;42.682;23.322;2022-07-29T16:25:48;8.00;;;4.95;;
71570;SDS011;59407;42.682;23.322;2022-07-29T16:28:13;6.97;;;5.03;;
71570;SDS011;59407;42.682;23.322;2022-07-29T16:30:39;8.73;;;4.90;;